sensor_id;sensor_type;location;lat;lon;timestamp;temperature;humidity
44305;DHT22;30019;50.576;8.568;2023-09-12T02:18:01;17.30;99.90
44305;DHT22;30019;50.576;8.568;2023-09-12T02:20:27;17.50;99.90
44305;DHT22;30019;50.576;8.568;2023-09-12T02:22:53;17.30;99.90
44305;DHT22;30019;50.576;8.568;2023-09-12T02:25:18;17.20;99.90
44305;DHT22;30019;50.576;8.568;2023-09-12T02:27:44;17.20;99.90
44305;DHT22;30019;50.576;8.568;2023-09-12T02:30:09;17.30;99.90
44305;DHT22;30019;50.576;8.568;2023-09-12T02:32:35;17.20;99.90
44305;DHT22;30019;50.576;8.568;2023-09-12T02:35:01;17.20;99.90
44305;DHT22;30019;50.576;8.568;2023-09-12T02:37:26;17.20;99.90
44305;DHT22;30019;50.576;8.568;2023-09-12T02:39:52;17.10;99.90
44305;DHT22;30019;50.576;8.568;2023-09-12T02:42:17;17.00;99.90
44305;DHT22;30019;50.576;8.568;2023-09-12T02:44:43;16.80;99.90
44305;DHT22;30019;50.576;8.568;2023-09-12T02:47:08;16.70;99.90
44305;DHT22;30019;50.576;8.568;2023-09-12T02:49:34;16.70;99.90
44305;DHT22;30019;50.576;8.568;2023-09-12T02:51:59;16.60;99.90
44305;DHT22;30019;50.576;8.568;2023-09-12T02:54:25;16.60;99.90
44305;DHT22;30019;50.576;8.568;2023-09-12T02:56:50;16.60;99.90
44305;DHT22;30019;50.576;8.568;2023-09-12T02:59:16;16.70;99.90
44305;DHT22;30019;50.576;8.568;2023-09-12T03:01:42;16.70;99.90
44305;DHT22;30019;50.576;8.568;2023-09-12T03:04:07;16.60;99.90
44305;DHT22;30019;50.576;8.568;2023-09-12T03:06:33;16.50;99.90
44305;DHT22;30019;50.576;8.568;2023-09-12T03:08:58;16.40;99.90
44305;DHT22;30019;50.576;8.568;2023-09-12T03:11:26;16.40;99.90
44305;DHT22;30019;50.576;8.568;2023-09-12T03:13:53;16.50;99.90
44305;DHT22;30019;50.576;8.568;2023-09-12T03:16:18;16.50;99.90
44305;DHT22;30019;50.576;8.568;2023-09-12T03:18:44;16.60;99.90
44305;DHT22;30019;50.576;8.568;2023-09-12T03:21:09;16.70;99.90
44305;DHT22;30019;50.576;8.568;2023-09-12T03:23:35;16.80;99.90
44305;DHT22;30019;50.576;8.568;2023-09-12T03:26:05;16.80;99.90
44305;DHT22;30019;50.576;8.568;2023-09-12T03:28:31;16.70;99.90
44305;DHT22;30019;50.576;8.568;2023-09-12T03:31:07;16.80;99.90
44305;DHT22;30019;50.576;8.568;2023-09-12T03:33:33;16.90;99.90
44305;DHT22;30019;50.576;8.568;2023-09-12T03:35:59;17.10;99.90
44305;DHT22;30019;50.576;8.568;2023-09-12T03:38:25;17.30;99.90
44305;DHT22;30019;50.576;8.568;2023-09-12T03:40:50;17.30;99.90
44305;DHT22;30019;50.576;8.568;2023-09-12T03:43:16;17.20;99.90
44305;DHT22;30019;50.576;8.568;2023-09-12T03:45:41;17.10;99.90
44305;DHT22;30019;50.576;8.568;2023-09-12T03:48:07;17.20;99.90
44305;DHT22;30019;50.576;8.568;2023-09-12T03:50:32;17.20;99.90
44305;DHT22;30019;50.576;8.568;2023-09-12T03:52:58;17.20;99.90
44305;DHT22;30019;50.576;8.568;2023-09-12T03:55:23;17.30;99.90
44305;DHT22;30019;50.576;8.568;2023-09-12T03:57:49;17.40;99.90
44305;DHT22;30019;50.576;8.568;2023-09-12T04:00:15;17.30;99.90
44305;DHT22;30019;50.576;8.568;2023-09-12T04:02:41;17.30;99.90
44305;DHT22;30019;50.576;8.568;2023-09-12T04:05:07;17.40;99.90
44305;DHT22;30019;50.576;8.568;2023-09-12T04:07:32;17.40;99.90
44305;DHT22;30019;50.576;8.568;2023-09-12T04:09:58;17.40;99.90
44305;DHT22;30019;50.576;8.568;2023-09-12T04:12:23;17.40;99.90
44305;DHT22;30019;50.576;8.568;2023-09-12T04:14:50;17.40;99.90
44305;DHT22;30019;50.576;8.568;2023-09-12T04:17:16;17.40;99.90
44305;DHT22;30019;50.576;8.568;2023-09-12T04:19:42;17.40;99.90
44305;DHT22;30019;50.576;8.568;2023-09-12T04:22:07;17.30;99.90
44305;DHT22;30019;50.576;8.568;2023-09-12T04:24:33;17.40;99.90
44305;DHT22;30019;50.576;8.568;2023-09-12T04:26:59;17.40;99.90
44305;DHT22;30019;50.576;8.568;2023-09-12T04:29:24;17.40;99.90
44305;DHT22;30019;50.576;8.568;2023-09-12T04:31:50;17.40;99.90
44305;DHT22;30019;50.576;8.568;2023-09-12T04:34:18;17.50;99.90
44305;DHT22;30019;50.576;8.568;2023-09-12T04:36:43;17.40;99.90
44305;DHT22;30019;50.576;8.568;2023-09-12T04:39:09;17.30;99.90
44305;DHT22;30019;50.576;8.568;2023-09-12T04:41:34;17.40;99.90
44305;DHT22;30019;50.576;8.568;2023-09-12T04:44:00;17.40;99.90
44305;DHT22;30019;50.576;8.568;2023-09-12T04:46:27;17.40;99.90
44305;DHT22;30019;50.576;8.568;2023-09-12T04:48:53;17.30;99.90
44305;DHT22;30019;50.576;8.568;2023-09-12T04:51:18;17.40;99.90
44305;DHT22;30019;50.576;8.568;2023-09-12T04:53:44;17.40;99.90
44305;DHT22;30019;50.576;8.568;2023-09-12T04:56:10;17.50;99.90
44305;DHT22;30019;50.576;8.568;2023-09-12T04:58:35;17.50;99.90
44305;DHT22;30019;50.576;8.568;2023-09-12T05:01:01;17.30;99.90
44305;DHT22;30019;50.576;8.568;2023-09-12T05:03:27;17.20;99.90
44305;DHT22;30019;50.576;8.568;2023-09-12T05:05:53;17.20;99.90
44305;DHT22;30019;50.576;8.568;2023-09-12T05:08:19;17.30;99.90
44305;DHT22;30019;50.576;8.568;2023-09-12T05:10:45;17.40;99.90
44305;DHT22;30019;50.576;8.568;2023-09-12T05:13:10;17.50;99.90
44305;DHT22;30019;50.576;8.568;2023-09-12T05:15:37;17.60;99.90
44305;DHT22;30019;50.576;8.568;2023-09-12T05:18:07;17.60;99.90
44305;DHT22;30019;50.576;8.568;2023-09-12T05:20:33;17.70;99.90
44305;DHT22;30019;50.576;8.568;2023-09-12T05:22:59;17.70;99.90
44305;DHT22;30019;50.576;8.568;2023-09-12T05:25:24;17.60;99.90
44305;DHT22;30019;50.576;8.568;2023-09-12T05:27:52;17.50;99.90
44305;DHT22;30019;50.576;8.568;2023-09-12T05:30:17;17.50;99.90
44305;DHT22;30019;50.576;8.568;2023-09-12T05:32:43;17.40;99.90
44305;DHT22;30019;50.576;8.568;2023-09-12T05:35:08;17.40;99.90
44305;DHT22;30019;50.576;8.568;2023-09-12T05:37:34;17.40;99.90
44305;DHT22;30019;50.576;8.568;2023-09-12T05:39:59;17.40;99.90
44305;DHT22;30019;50.576;8.568;2023-09-12T05:42:25;17.20;99.90
44305;DHT22;30019;50.576;8.568;2023-09-12T05:44:50;17.30;99.90
44305;DHT22;30019;50.576;8.568;2023-09-12T05:47:19;17.30;99.90
44305;DHT22;30019;50.576;8.568;2023-09-12T05:49:44;17.30;99.90
44305;DHT22;30019;50.576;8.568;2023-09-12T05:52:10;17.40;99.90
44305;DHT22;30019;50.576;8.568;2023-09-12T05:54:36;17.60;99.90
44305;DHT22;30019;50.576;8.568;2023-09-12T05:57:02;17.60;99.90
44305;DHT22;30019;50.576;8.568;2023-09-12T05:59:28;17.70;99.90
44305;DHT22;30019;50.576;8.568;2023-09-12T06:01:53;17.70;99.90
44305;DHT22;30019;50.576;8.568;2023-09-12T06:04:19;17.70;99.90
44305;DHT22;30019;50.576;8.568;2023-09-12T06:06:45;17.80;99.90
44305;DHT22;30019;50.576;8.568;2023-09-12T06:09:11;17.70;99.90
44305;DHT22;30019;50.576;8.568;2023-09-12T06:11:36;17.70;99.90
44305;DHT22;30019;50.576;8.568;2023-09-12T06:14:02;17.70;99.90
44305;DHT22;30019;50.576;8.568;2023-09-12T06:16:27;17.60;99.90
44305;DHT22;30019;50.576;8.568;2023-09-12T06:18:53;17.60;99.90
44305;DHT22;30019;50.576;8.568;2023-09-12T06:21:19;17.80;99.90
44305;DHT22;30019;50.576;8.568;2023-09-12T06:23:57;17.90;99.90
44305;DHT22;30019;50.576;8.568;2023-09-12T06:26:31;18.00;99.90
44305;DHT22;30019;50.576;8.568;2023-09-12T06:28:57;17.90;99.90
44305;DHT22;30019;50.576;8.568;2023-09-12T06:31:22;18.10;99.90
44305;DHT22;30019;50.576;8.568;2023-09-12T06:33:48;18.20;99.90
44305;DHT22;30019;50.576;8.568;2023-09-12T06:36:13;18.20;99.90
44305;DHT22;30019;50.576;8.568;2023-09-12T06:38:39;18.20;99.90
44305;DHT22;30019;50.576;8.568;2023-09-12T06:41:04;18.30;99.90
44305;DHT22;30019;50.576;8.568;2023-09-12T06:43:30;18.30;99.90
44305;DHT22;30019;50.576;8.568;2023-09-12T06:48:21;18.40;99.90
44305;DHT22;30019;50.576;8.568;2023-09-12T06:53:13;19.00;99.90
44305;DHT22;30019;50.576;8.568;2023-09-12T06:55:38;19.30;99.90
44305;DHT22;30019;50.576;8.568;2023-09-12T06:58:04;19.40;99.90
44305;DHT22;30019;50.576;8.568;2023-09-12T07:00:29;19.50;99.90
44305;DHT22;30019;50.576;8.568;2023-09-12T07:02:56;19.40;99.90
44305;DHT22;30019;50.576;8.568;2023-09-12T07:05:22;19.60;99.90
44305;DHT22;30019;50.576;8.568;2023-09-12T07:07:47;19.70;99.90
44305;DHT22;30019;50.576;8.568;2023-09-12T07:10:13;19.80;99.90
44305;DHT22;30019;50.576;8.568;2023-09-12T07:12:38;19.80;99.90
44305;DHT22;30019;50.576;8.568;2023-09-12T07:15:04;19.80;99.90
44305;DHT22;30019;50.576;8.568;2023-09-12T07:17:29;19.80;99.90
44305;DHT22;30019;50.576;8.568;2023-09-12T07:19:55;19.80;99.90
44305;DHT22;30019;50.576;8.568;2023-09-12T07:22:20;19.80;99.90
44305;DHT22;30019;50.576;8.568;2023-09-12T07:24:46;19.80;99.90
44305;DHT22;30019;50.576;8.568;2023-09-12T07:27:12;19.90;99.90
44305;DHT22;30019;50.576;8.568;2023-09-12T07:29:37;19.90;99.90
44305;DHT22;30019;50.576;8.568;2023-09-12T07:32:03;19.90;99.90
44305;DHT22;30019;50.576;8.568;2023-09-12T07:34:28;20.00;99.90
44305;DHT22;30019;50.576;8.568;2023-09-12T07:36:54;20.10;99.90
44305;DHT22;30019;50.576;8.568;2023-09-12T07:39:19;20.10;99.90
44305;DHT22;30019;50.576;8.568;2023-09-12T07:41:45;20.30;99.90
44305;DHT22;30019;50.576;8.568;2023-09-12T07:44:11;20.40;99.90
44305;DHT22;30019;50.576;8.568;2023-09-12T07:46:39;20.40;99.90
44305;DHT22;30019;50.576;8.568;2023-09-12T07:49:05;20.20;99.90
44305;DHT22;30019;50.576;8.568;2023-09-12T07:51:30;20.60;99.90
44305;DHT22;30019;50.576;8.568;2023-09-12T07:53:56;20.80;99.90
44305;DHT22;30019;50.576;8.568;2023-09-12T07:56:21;21.00;99.90
44305;DHT22;30019;50.576;8.568;2023-09-12T07:58:48;21.10;99.90
44305;DHT22;30019;50.576;8.568;2023-09-12T08:01:14;20.90;99.90
44305;DHT22;30019;50.576;8.568;2023-09-12T08:03:41;21.00;99.90
44305;DHT22;30019;50.576;8.568;2023-09-12T08:06:07;21.10;99.90
44305;DHT22;30019;50.576;8.568;2023-09-12T08:08:33;21.30;99.90
44305;DHT22;30019;50.576;8.568;2023-09-12T08:10:59;21.50;99.90
44305;DHT22;30019;50.576;8.568;2023-09-12T08:13:28;21.60;99.90
44305;DHT22;30019;50.576;8.568;2023-09-12T08:15:54;21.60;99.90
44305;DHT22;30019;50.576;8.568;2023-09-12T08:18:19;21.70;99.90
44305;DHT22;30019;50.576;8.568;2023-09-12T08:20:45;21.70;99.90
44305;DHT22;30019;50.576;8.568;2023-09-12T08:23:10;21.80;99.90
44305;DHT22;30019;50.576;8.568;2023-09-12T08:25:36;21.90;99.90
44305;DHT22;30019;50.576;8.568;2023-09-12T08:28:01;22.00;99.90
44305;DHT22;30019;50.576;8.568;2023-09-12T08:30:27;22.20;99.90
44305;DHT22;30019;50.576;8.568;2023-09-12T08:32:55;22.50;99.90
44305;DHT22;30019;50.576;8.568;2023-09-12T08:35:20;22.70;99.90
44305;DHT22;30019;50.576;8.568;2023-09-12T08:37:46;22.80;99.90
44305;DHT22;30019;50.576;8.568;2023-09-12T08:40:11;22.80;99.90
44305;DHT22;30019;50.576;8.568;2023-09-12T08:42:41;23.00;99.90
44305;DHT22;30019;50.576;8.568;2023-09-12T08:45:14;23.20;99.90
44305;DHT22;30019;50.576;8.568;2023-09-12T08:47:49;23.40;99.90
44305;DHT22;30019;50.576;8.568;2023-09-12T08:50:15;23.30;99.90
44305;DHT22;30019;50.576;8.568;2023-09-12T08:52:42;23.40;99.90
44305;DHT22;30019;50.576;8.568;2023-09-12T08:55:08;23.60;99.90
44305;DHT22;30019;50.576;8.568;2023-09-12T08:57:33;23.80;99.90
44305;DHT22;30019;50.576;8.568;2023-09-12T09:02:34;24.60;99.90
44305;DHT22;30019;50.576;8.568;2023-09-12T09:05:00;25.00;99.90
44305;DHT22;30019;50.576;8.568;2023-09-12T09:07:27;25.10;99.90
44305;DHT22;30019;50.576;8.568;2023-09-12T09:09:53;25.00;99.90
44305;DHT22;30019;50.576;8.568;2023-09-12T09:12:19;25.20;99.90
44305;DHT22;30019;50.576;8.568;2023-09-12T09:14:45;25.30;99.90
44305;DHT22;30019;50.576;8.568;2023-09-12T09:17:10;25.50;99.90
44305;DHT22;30019;50.576;8.568;2023-09-12T09:19:44;25.40;99.90
44305;DHT22;30019;50.576;8.568;2023-09-12T09:22:10;25.60;99.90
44305;DHT22;30019;50.576;8.568;2023-09-12T09:24:35;25.90;99.90
44305;DHT22;30019;50.576;8.568;2023-09-12T09:27:01;26.10;99.90
44305;DHT22;30019;50.576;8.568;2023-09-12T09:29:27;26.20;99.90
44305;DHT22;30019;50.576;8.568;2023-09-12T09:31:59;26.20;99.90
44305;DHT22;30019;50.576;8.568;2023-09-12T09:34:25;26.20;99.90
44305;DHT22;30019;50.576;8.568;2023-09-12T09:36:53;26.60;99.90
44305;DHT22;30019;50.576;8.568;2023-09-12T09:39:20;26.60;99.90
44305;DHT22;30019;50.576;8.568;2023-09-12T09:44:11;27.50;99.90
44305;DHT22;30019;50.576;8.568;2023-09-12T09:46:38;28.40;99.90
44305;DHT22;30019;50.576;8.568;2023-09-12T09:49:04;28.60;99.90
44305;DHT22;30019;50.576;8.568;2023-09-12T09:51:31;29.50;99.90
44305;DHT22;30019;50.576;8.568;2023-09-12T09:53:57;30.10;99.90
44305;DHT22;30019;50.576;8.568;2023-09-12T09:56:24;30.50;99.90
44305;DHT22;30019;50.576;8.568;2023-09-12T09:58:51;31.00;98.00
44305;DHT22;30019;50.576;8.568;2023-09-12T10:01:17;31.10;97.40
44305;DHT22;30019;50.576;8.568;2023-09-12T10:06:10;32.40;93.10
44305;DHT22;30019;50.576;8.568;2023-09-12T10:11:01;33.80;88.90
44305;DHT22;30019;50.576;8.568;2023-09-12T10:13:27;32.30;90.30
44305;DHT22;30019;50.576;8.568;2023-09-12T10:15:58;31.90;92.10
44305;DHT22;30019;50.576;8.568;2023-09-12T10:18:24;32.90;89.70
44305;DHT22;30019;50.576;8.568;2023-09-12T10:20:58;33.50;87.90
44305;DHT22;30019;50.576;8.568;2023-09-12T10:23:37;32.70;83.00
44305;DHT22;30019;50.576;8.568;2023-09-12T10:26:07;32.30;88.30
44305;DHT22;30019;50.576;8.568;2023-09-12T10:28:34;33.40;88.50
44305;DHT22;30019;50.576;8.568;2023-09-12T10:31:00;33.90;86.60
44305;DHT22;30019;50.576;8.568;2023-09-12T10:33:27;34.20;84.80
44305;DHT22;30019;50.576;8.568;2023-09-12T10:35:57;34.50;78.80
44305;DHT22;30019;50.576;8.568;2023-09-12T10:38:23;35.30;80.10
44305;DHT22;30019;50.576;8.568;2023-09-12T10:40:51;35.60;76.20
44305;DHT22;30019;50.576;8.568;2023-09-12T10:43:18;35.30;78.30
44305;DHT22;30019;50.576;8.568;2023-09-12T10:45:44;35.80;75.60
44305;DHT22;30019;50.576;8.568;2023-09-12T10:48:10;35.90;75.70
44305;DHT22;30019;50.576;8.568;2023-09-12T10:50:37;36.50;73.80
44305;DHT22;30019;50.576;8.568;2023-09-12T10:53:11;36.90;71.90
44305;DHT22;30019;50.576;8.568;2023-09-12T10:55:37;36.60;71.50
44305;DHT22;30019;50.576;8.568;2023-09-12T10:58:03;36.50;71.50
44305;DHT22;30019;50.576;8.568;2023-09-12T11:00:29;36.50;73.40
44305;DHT22;30019;50.576;8.568;2023-09-12T11:02:58;36.00;70.80
44305;DHT22;30019;50.576;8.568;2023-09-12T11:07:50;35.70;72.60
44305;DHT22;30019;50.576;8.568;2023-09-12T11:10:17;35.00;75.80
44305;DHT22;30019;50.576;8.568;2023-09-12T11:12:46;34.70;77.50
44305;DHT22;30019;50.576;8.568;2023-09-12T11:15:11;34.30;75.30
44305;DHT22;30019;50.576;8.568;2023-09-12T11:17:40;34.30;77.10
44305;DHT22;30019;50.576;8.568;2023-09-12T11:20:06;34.00;76.10
44305;DHT22;30019;50.576;8.568;2023-09-12T11:22:42;33.00;81.30
44305;DHT22;30019;50.576;8.568;2023-09-12T11:25:17;33.80;76.90
44305;DHT22;30019;50.576;8.568;2023-09-12T11:27:45;34.30;77.60
44305;DHT22;30019;50.576;8.568;2023-09-12T11:30:11;34.70;74.50
44305;DHT22;30019;50.576;8.568;2023-09-12T11:32:37;35.30;74.80
44305;DHT22;30019;50.576;8.568;2023-09-12T11:35:09;35.60;70.30
44305;DHT22;30019;50.576;8.568;2023-09-12T11:37:35;35.50;73.50
44305;DHT22;30019;50.576;8.568;2023-09-12T11:42:39;35.80;69.10
44305;DHT22;30019;50.576;8.568;2023-09-12T11:45:07;35.80;71.20
44305;DHT22;30019;50.576;8.568;2023-09-12T11:47:33;35.70;70.80
44305;DHT22;30019;50.576;8.568;2023-09-12T11:49:59;35.20;70.90
44305;DHT22;30019;50.576;8.568;2023-09-12T11:52:24;35.10;72.30
44305;DHT22;30019;50.576;8.568;2023-09-12T11:54:50;35.10;70.00
44305;DHT22;30019;50.576;8.568;2023-09-12T11:57:15;35.50;70.20
44305;DHT22;30019;50.576;8.568;2023-09-12T11:59:41;35.70;69.50
44305;DHT22;30019;50.576;8.568;2023-09-12T12:02:10;35.20;71.00
44305;DHT22;30019;50.576;8.568;2023-09-12T12:04:36;34.20;73.30
44305;DHT22;30019;50.576;8.568;2023-09-12T12:07:02;33.40;76.00
44305;DHT22;30019;50.576;8.568;2023-09-12T12:09:29;33.20;77.90
44305;DHT22;30019;50.576;8.568;2023-09-12T12:11:55;33.30;76.50
44305;DHT22;30019;50.576;8.568;2023-09-12T12:14:20;33.70;74.30
44305;DHT22;30019;50.576;8.568;2023-09-12T12:16:46;34.20;74.80
44305;DHT22;30019;50.576;8.568;2023-09-12T12:19:15;35.40;76.40
44305;DHT22;30019;50.576;8.568;2023-09-12T12:21:41;34.30;69.50
44305;DHT22;30019;50.576;8.568;2023-09-12T12:24:10;33.50;72.90
44305;DHT22;30019;50.576;8.568;2023-09-12T12:26:37;33.50;78.40
44305;DHT22;30019;50.576;8.568;2023-09-12T12:29:04;33.00;80.30
44305;DHT22;30019;50.576;8.568;2023-09-12T12:31:30;32.20;80.90
44305;DHT22;30019;50.576;8.568;2023-09-12T12:33:56;31.70;82.90
44305;DHT22;30019;50.576;8.568;2023-09-12T12:36:21;31.20;85.30
44305;DHT22;30019;50.576;8.568;2023-09-12T12:38:48;30.60;86.50
44305;DHT22;30019;50.576;8.568;2023-09-12T12:41:14;30.30;88.70
44305;DHT22;30019;50.576;8.568;2023-09-12T12:43:40;29.90;89.80
44305;DHT22;30019;50.576;8.568;2023-09-12T12:46:09;29.60;90.50
44305;DHT22;30019;50.576;8.568;2023-09-12T12:51:20;29.20;90.10
44305;DHT22;30019;50.576;8.568;2023-09-12T12:53:51;29.10;92.20
44305;DHT22;30019;50.576;8.568;2023-09-12T12:56:18;28.80;93.10
44305;DHT22;30019;50.576;8.568;2023-09-12T12:59:17;28.60;91.10
44305;DHT22;30019;50.576;8.568;2023-09-12T13:01:36;28.40;94.90
44305;DHT22;30019;50.576;8.568;2023-09-12T13:04:04;28.30;91.10
44305;DHT22;30019;50.576;8.568;2023-09-12T13:06:29;28.20;93.20
44305;DHT22;30019;50.576;8.568;2023-09-12T13:08:55;28.20;93.60
44305;DHT22;30019;50.576;8.568;2023-09-12T13:11:22;28.20;95.00
44305;DHT22;30019;50.576;8.568;2023-09-12T13:13:48;27.80;91.50
44305;DHT22;30019;50.576;8.568;2023-09-12T13:16:16;27.70;91.70
44305;DHT22;30019;50.576;8.568;2023-09-12T13:18:42;27.60;92.60
44305;DHT22;30019;50.576;8.568;2023-09-12T13:21:07;27.70;94.40
44305;DHT22;30019;50.576;8.568;2023-09-12T13:23:33;27.70;95.10
44305;DHT22;30019;50.576;8.568;2023-09-12T13:25:59;27.70;93.70
44305;DHT22;30019;50.576;8.568;2023-09-12T13:28:24;27.60;94.40
44305;DHT22;30019;50.576;8.568;2023-09-12T13:30:53;27.60;98.30
44305;DHT22;30019;50.576;8.568;2023-09-12T13:33:18;27.50;94.60
44305;DHT22;30019;50.576;8.568;2023-09-12T13:35:44;27.30;96.40
44305;DHT22;30019;50.576;8.568;2023-09-12T13:38:09;27.20;98.80
44305;DHT22;30019;50.576;8.568;2023-09-12T13:40:38;27.10;97.60
44305;DHT22;30019;50.576;8.568;2023-09-12T13:43:05;27.10;99.80
44305;DHT22;30019;50.576;8.568;2023-09-12T13:45:30;27.10;99.90
44305;DHT22;30019;50.576;8.568;2023-09-12T13:47:57;27.30;99.60
44305;DHT22;30019;50.576;8.568;2023-09-12T13:50:22;27.70;98.60
44305;DHT22;30019;50.576;8.568;2023-09-12T13:52:48;28.60;96.90
44305;DHT22;30019;50.576;8.568;2023-09-12T13:55:14;29.10;93.00
44305;DHT22;30019;50.576;8.568;2023-09-12T13:57:41;29.50;92.50
44305;DHT22;30019;50.576;8.568;2023-09-12T14:00:07;30.20;91.10
44305;DHT22;30019;50.576;8.568;2023-09-12T14:02:32;29.50;88.20
44305;DHT22;30019;50.576;8.568;2023-09-12T14:04:58;29.60;93.10
44305;DHT22;30019;50.576;8.568;2023-09-12T14:07:23;29.10;92.20
44305;DHT22;30019;50.576;8.568;2023-09-12T14:09:49;28.90;91.90
44305;DHT22;30019;50.576;8.568;2023-09-12T14:12:15;29.20;95.00
44305;DHT22;30019;50.576;8.568;2023-09-12T14:14:40;29.10;94.60
44305;DHT22;30019;50.576;8.568;2023-09-12T14:17:06;29.20;90.30
44305;DHT22;30019;50.576;8.568;2023-09-12T14:19:31;29.00;90.80
44305;DHT22;30019;50.576;8.568;2023-09-12T14:21:57;29.50;94.50
44305;DHT22;30019;50.576;8.568;2023-09-12T14:24:22;30.00;92.40
44305;DHT22;30019;50.576;8.568;2023-09-12T14:26:48;29.90;90.40
44305;DHT22;30019;50.576;8.568;2023-09-12T14:29:14;30.00;88.70
44305;DHT22;30019;50.576;8.568;2023-09-12T14:31:40;30.40;91.10
44305;DHT22;30019;50.576;8.568;2023-09-12T14:34:14;30.60;92.80
44305;DHT22;30019;50.576;8.568;2023-09-12T14:36:40;30.50;90.30
44305;DHT22;30019;50.576;8.568;2023-09-12T14:39:05;30.60;90.90
44305;DHT22;30019;50.576;8.568;2023-09-12T14:41:31;30.50;88.40
44305;DHT22;30019;50.576;8.568;2023-09-12T14:43:57;30.20;87.30
44305;DHT22;30019;50.576;8.568;2023-09-12T14:46:22;30.60;89.70
44305;DHT22;30019;50.576;8.568;2023-09-12T14:48:48;30.70;89.90
44305;DHT22;30019;50.576;8.568;2023-09-12T14:51:14;30.90;92.90
44305;DHT22;30019;50.576;8.568;2023-09-12T14:53:39;31.10;90.70
44305;DHT22;30019;50.576;8.568;2023-09-12T14:56:12;31.40;91.00
44305;DHT22;30019;50.576;8.568;2023-09-12T14:58:37;31.20;84.10
44305;DHT22;30019;50.576;8.568;2023-09-12T15:01:03;31.00;85.90
44305;DHT22;30019;50.576;8.568;2023-09-12T15:03:29;30.10;86.60
44305;DHT22;30019;50.576;8.568;2023-09-12T15:05:56;29.60;93.70
44305;DHT22;30019;50.576;8.568;2023-09-12T15:08:21;29.10;90.40
44305;DHT22;30019;50.576;8.568;2023-09-12T15:10:47;28.50;92.60
44305;DHT22;30019;50.576;8.568;2023-09-12T15:13:12;27.90;93.50
44305;DHT22;30019;50.576;8.568;2023-09-12T15:15:39;27.70;93.70
44305;DHT22;30019;50.576;8.568;2023-09-12T15:18:05;27.80;94.40
44305;DHT22;30019;50.576;8.568;2023-09-12T15:20:30;27.80;95.90
44305;DHT22;30019;50.576;8.568;2023-09-12T15:22:56;28.10;92.70
44305;DHT22;30019;50.576;8.568;2023-09-12T15:25:21;28.40;92.60
44305;DHT22;30019;50.576;8.568;2023-09-12T15:27:47;28.80;97.40
44305;DHT22;30019;50.576;8.568;2023-09-12T15:30:13;28.60;92.00
44305;DHT22;30019;50.576;8.568;2023-09-12T15:32:38;28.60;93.60
44305;DHT22;30019;50.576;8.568;2023-09-12T15:35:04;28.10;94.10
44305;DHT22;30019;50.576;8.568;2023-09-12T15:37:30;27.70;94.60
44305;DHT22;30019;50.576;8.568;2023-09-12T15:39:56;27.50;95.50
44305;DHT22;30019;50.576;8.568;2023-09-12T15:42:21;27.40;95.40
44305;DHT22;30019;50.576;8.568;2023-09-12T15:44:47;27.30;95.20
44305;DHT22;30019;50.576;8.568;2023-09-12T15:47:13;27.30;95.70
44305;DHT22;30019;50.576;8.568;2023-09-12T15:49:39;27.10;96.80
44305;DHT22;30019;50.576;8.568;2023-09-12T15:52:04;27.00;98.10
44305;DHT22;30019;50.576;8.568;2023-09-12T15:54:30;26.90;98.50
44305;DHT22;30019;50.576;8.568;2023-09-12T15:56:55;26.70;99.30
44305;DHT22;30019;50.576;8.568;2023-09-12T15:59:21;26.60;99.90
44305;DHT22;30019;50.576;8.568;2023-09-12T16:01:46;26.50;99.70
44305;DHT22;30019;50.576;8.568;2023-09-12T16:04:12;26.40;99.80
44305;DHT22;30019;50.576;8.568;2023-09-12T16:06:38;26.30;99.90
44305;DHT22;30019;50.576;8.568;2023-09-12T16:09:03;26.30;99.90
44305;DHT22;30019;50.576;8.568;2023-09-12T16:11:31;26.20;99.90
44305;DHT22;30019;50.576;8.568;2023-09-12T16:13:56;26.20;99.90
44305;DHT22;30019;50.576;8.568;2023-09-12T16:16:22;26.20;99.90
44305;DHT22;30019;50.576;8.568;2023-09-12T16:18:47;26.10;99.90
44305;DHT22;30019;50.576;8.568;2023-09-12T16:21:13;26.00;99.90
44305;DHT22;30019;50.576;8.568;2023-09-12T16:23:39;26.00;99.90
44305;DHT22;30019;50.576;8.568;2023-09-12T16:26:04;25.90;99.90
44305;DHT22;30019;50.576;8.568;2023-09-12T16:28:30;25.90;99.90
44305;DHT22;30019;50.576;8.568;2023-09-12T16:30:55;25.80;99.90
44305;DHT22;30019;50.576;8.568;2023-09-12T16:33:21;25.90;99.90
44305;DHT22;30019;50.576;8.568;2023-09-12T16:35:46;25.90;99.90
44305;DHT22;30019;50.576;8.568;2023-09-12T16:38:13;25.90;99.90
44305;DHT22;30019;50.576;8.568;2023-09-12T16:40:38;26.00;99.90
44305;DHT22;30019;50.576;8.568;2023-09-12T16:43:04;26.00;99.90
44305;DHT22;30019;50.576;8.568;2023-09-12T16:45:30;26.00;99.90
44305;DHT22;30019;50.576;8.568;2023-09-12T16:47:55;25.90;99.90
44305;DHT22;30019;50.576;8.568;2023-09-12T16:50:21;25.90;99.90
44305;DHT22;30019;50.576;8.568;2023-09-12T16:52:49;25.90;99.90
44305;DHT22;30019;50.576;8.568;2023-09-12T16:55:15;25.90;99.90
44305;DHT22;30019;50.576;8.568;2023-09-12T16:57:41;25.90;99.90
44305;DHT22;30019;50.576;8.568;2023-09-12T17:00:07;25.90;99.90
44305;DHT22;30019;50.576;8.568;2023-09-12T17:02:33;25.80;99.90
44305;DHT22;30019;50.576;8.568;2023-09-12T17:05:03;25.60;99.90
44305;DHT22;30019;50.576;8.568;2023-09-12T17:07:30;25.50;99.90
44305;DHT22;30019;50.576;8.568;2023-09-12T17:09:55;25.40;99.90
44305;DHT22;30019;50.576;8.568;2023-09-12T17:12:21;25.40;99.90
44305;DHT22;30019;50.576;8.568;2023-09-12T17:14:46;25.40;99.90
44305;DHT22;30019;50.576;8.568;2023-09-12T17:17:12;25.40;99.90
44305;DHT22;30019;50.576;8.568;2023-09-12T17:19:37;25.40;99.90
44305;DHT22;30019;50.576;8.568;2023-09-12T17:22:03;25.30;99.90
44305;DHT22;30019;50.576;8.568;2023-09-12T17:24:28;25.30;99.90
44305;DHT22;30019;50.576;8.568;2023-09-12T17:26:54;25.20;99.90
44305;DHT22;30019;50.576;8.568;2023-09-12T17:29:19;25.20;99.90
44305;DHT22;30019;50.576;8.568;2023-09-12T17:31:47;25.00;99.90
44305;DHT22;30019;50.576;8.568;2023-09-12T17:34:15;25.10;99.90
44305;DHT22;30019;50.576;8.568;2023-09-12T17:36:41;24.90;99.90
44305;DHT22;30019;50.576;8.568;2023-09-12T17:39:07;24.90;99.90
44305;DHT22;30019;50.576;8.568;2023-09-12T17:41:34;24.90;99.90
44305;DHT22;30019;50.576;8.568;2023-09-12T17:44:00;24.90;99.90
44305;DHT22;30019;50.576;8.568;2023-09-12T17:46:27;24.90;99.90
44305;DHT22;30019;50.576;8.568;2023-09-12T17:48:53;24.80;99.90
44305;DHT22;30019;50.576;8.568;2023-09-12T17:51:18;24.60;99.90
44305;DHT22;30019;50.576;8.568;2023-09-12T17:53:44;24.50;99.90
44305;DHT22;30019;50.576;8.568;2023-09-12T17:56:09;24.40;99.90
44305;DHT22;30019;50.576;8.568;2023-09-12T17:58:35;24.00;99.90
44305;DHT22;30019;50.576;8.568;2023-09-12T18:01:01;23.90;99.90
44305;DHT22;30019;50.576;8.568;2023-09-12T18:03:26;23.70;99.90